N172ZB KGYH-KAHN
Flight info
| Callsign | N172ZB |
|---|---|
| Flight time | 0h 43m |
| Altitude | 4000 |
| Route | WANOL V266 ELW V20 AHN |
| Aircraft | C172/L-V/N |
Departure
| Time | 2026-04-23 21:29 |
|---|---|
| Airport | Donaldson Field Airport (KGYH) |
Arrival
| Time | 2026-04-23 22:12 |
|---|---|
| Airport | Athens Ben Epps Airport (KAHN) |
| Time | Latitude | Longitude | Altitude | Speed | Heading |
|---|---|---|---|---|---|
| 2026-04-23 21:19 | 34.76234 | -82.37682 | 948 ft | 0 kts | 316° |
| 2026-04-23 21:24 | 34.76239 | -82.37689 | 947 ft | 1 kts | 315° |
| 2026-04-23 21:25 | 34.76246 | -82.37668 | 947 ft | 4 kts | 105° |
| 2026-04-23 21:25 | 34.76236 | -82.37628 | 948 ft | 10 kts | 101° |
| 2026-04-23 21:25 | 34.76231 | -82.37536 | 946 ft | 11 kts | 92° |
| 2026-04-23 21:25 | 34.76280 | -82.37470 | 944 ft | 11 kts | 38° |
| 2026-04-23 21:26 | 34.76343 | -82.37404 | 941 ft | 12 kts | 38° |
| 2026-04-23 21:26 | 34.76404 | -82.37344 | 941 ft | 10 kts | 39° |
| 2026-04-23 21:26 | 34.76448 | -82.37284 | 941 ft | 9 kts | 98° |
| 2026-04-23 21:26 | 34.76408 | -82.37219 | 940 ft | 9 kts | 130° |
| 2026-04-23 21:27 | 34.76404 | -82.37213 | 940 ft | 0 kts | 128° |
| 2026-04-23 21:27 | 34.76394 | -82.37198 | 939 ft | 7 kts | 129° |
| 2026-04-23 21:27 | 34.76336 | -82.37134 | 939 ft | 11 kts | 202° |
| 2026-04-23 21:27 | 34.76303 | -82.37165 | 939 ft | 20 kts | 221° |
| 2026-04-23 21:28 | 34.76075 | -82.37396 | 946 ft | 61 kts | 221° |
| 2026-04-23 21:28 | 34.75712 | -82.37752 | 1078 ft | 69 kts | 223° |
| 2026-04-23 21:28 | 34.75321 | -82.38140 | 1264 ft | 75 kts | 221° |
| 2026-04-23 21:28 | 34.74886 | -82.38507 | 1489 ft | 79 kts | 215° |
| 2026-04-23 21:29 | 34.74435 | -82.38881 | 1750 ft | 78 kts | 217° |
| 2026-04-23 21:29 | 34.73983 | -82.39265 | 1960 ft | 80 kts | 218° |
| 2026-04-23 21:29 | 34.73521 | -82.39622 | 2183 ft | 77 kts | 214° |
| 2026-04-23 21:29 | 34.73069 | -82.39992 | 2297 ft | 80 kts | 216° |
| 2026-04-23 21:30 | 34.72611 | -82.40350 | 2510 ft | 76 kts | 216° |
| 2026-04-23 21:30 | 34.72160 | -82.40715 | 2667 ft | 78 kts | 215° |
| 2026-04-23 21:30 | 34.71727 | -82.41084 | 2934 ft | 75 kts | 217° |
| 2026-04-23 21:30 | 34.71293 | -82.41451 | 3092 ft | 78 kts | 217° |
| 2026-04-23 21:31 | 34.70850 | -82.41839 | 3244 ft | 79 kts | 217° |
| 2026-04-23 21:31 | 34.70410 | -82.42224 | 3379 ft | 80 kts | 218° |
| 2026-04-23 21:31 | 34.69949 | -82.42617 | 3515 ft | 81 kts | 218° |
| 2026-04-23 21:31 | 34.69506 | -82.43004 | 3735 ft | 77 kts | 219° |
| 2026-04-23 21:32 | 34.69063 | -82.43386 | 3869 ft | 79 kts | 217° |
| 2026-04-23 21:32 | 34.68612 | -82.43761 | 4030 ft | 79 kts | 216° |
| 2026-04-23 21:32 | 34.68140 | -82.44206 | 4050 ft | 92 kts | 229° |
| 2026-04-23 21:32 | 34.67705 | -82.44831 | 4057 ft | 102 kts | 228° |
| 2026-04-23 21:33 | 34.67210 | -82.45499 | 4053 ft | 110 kts | 229° |
| 2026-04-23 21:33 | 34.66873 | -82.45956 | 4051 ft | 109 kts | 229° |
| 2026-04-23 21:33 | 34.66370 | -82.46617 | 4039 ft | 104 kts | 229° |
| 2026-04-23 21:33 | 34.65733 | -82.47453 | 4033 ft | 99 kts | 227° |
| 2026-04-23 21:34 | 34.65263 | -82.48074 | 4040 ft | 102 kts | 228° |
| 2026-04-23 21:34 | 34.64770 | -82.48715 | 4042 ft | 107 kts | 228° |
| 2026-04-23 21:34 | 34.64267 | -82.49372 | 4045 ft | 106 kts | 228° |
| 2026-04-23 21:34 | 34.63941 | -82.49801 | 4041 ft | 103 kts | 228° |
| 2026-04-23 21:35 | 34.63293 | -82.50648 | 4044 ft | 104 kts | 229° |
| 2026-04-23 21:35 | 34.62969 | -82.51075 | 4040 ft | 103 kts | 228° |
| 2026-04-23 21:35 | 34.62486 | -82.51703 | 4034 ft | 101 kts | 229° |
| 2026-04-23 21:35 | 34.62005 | -82.52330 | 4042 ft | 104 kts | 228° |
| 2026-04-23 21:36 | 34.61031 | -82.53602 | 4040 ft | 104 kts | 228° |
| 2026-04-23 21:36 | 34.60540 | -82.54249 | 4042 ft | 103 kts | 228° |
| 2026-04-23 21:36 | 34.60055 | -82.54880 | 4049 ft | 103 kts | 228° |
| 2026-04-23 21:37 | 34.59562 | -82.55520 | 4039 ft | 103 kts | 227° |
| 2026-04-23 21:37 | 34.59084 | -82.56146 | 4034 ft | 101 kts | 228° |
| 2026-04-23 21:37 | 34.58611 | -82.56766 | 4037 ft | 99 kts | 227° |
| 2026-04-23 21:37 | 34.58135 | -82.57382 | 4035 ft | 100 kts | 228° |
| 2026-04-23 21:38 | 34.57661 | -82.57999 | 4037 ft | 99 kts | 228° |
| 2026-04-23 21:38 | 34.57197 | -82.58607 | 4041 ft | 98 kts | 226° |
| 2026-04-23 21:38 | 34.56730 | -82.59215 | 4039 ft | 99 kts | 227° |
| 2026-04-23 21:38 | 34.56259 | -82.59833 | 4035 ft | 100 kts | 227° |
| 2026-04-23 21:39 | 34.55791 | -82.60440 | 4037 ft | 97 kts | 227° |
| 2026-04-23 21:39 | 34.55334 | -82.61035 | 4040 ft | 98 kts | 227° |
| 2026-04-23 21:39 | 34.54870 | -82.61642 | 4042 ft | 99 kts | 227° |
| 2026-04-23 21:39 | 34.54398 | -82.62258 | 4048 ft | 100 kts | 228° |
| 2026-04-23 21:40 | 34.53925 | -82.62869 | 4049 ft | 101 kts | 228° |
| 2026-04-23 21:40 | 34.53443 | -82.63504 | 4047 ft | 104 kts | 227° |
| 2026-04-23 21:40 | 34.52957 | -82.64134 | 4044 ft | 101 kts | 227° |
| 2026-04-23 21:40 | 34.52478 | -82.64757 | 4045 ft | 101 kts | 227° |
| 2026-04-23 21:41 | 34.52001 | -82.65378 | 4049 ft | 100 kts | 227° |
| 2026-04-23 21:41 | 34.51516 | -82.66006 | 4048 ft | 103 kts | 227° |
| 2026-04-23 21:41 | 34.51033 | -82.66635 | 4041 ft | 101 kts | 227° |
| 2026-04-23 21:41 | 34.50555 | -82.67258 | 4039 ft | 103 kts | 228° |
| 2026-04-23 21:42 | 34.49901 | -82.68111 | 4042 ft | 103 kts | 228° |
| 2026-04-23 21:42 | 34.49577 | -82.68532 | 4044 ft | 103 kts | 227° |
| 2026-04-23 21:42 | 34.49084 | -82.69173 | 4044 ft | 105 kts | 228° |
| 2026-04-23 21:42 | 34.48598 | -82.69807 | 4041 ft | 101 kts | 227° |
| 2026-04-23 21:43 | 34.48123 | -82.70422 | 4037 ft | 99 kts | 227° |
| 2026-04-23 21:43 | 34.47645 | -82.71046 | 4040 ft | 102 kts | 227° |
| 2026-04-23 21:43 | 34.47166 | -82.71667 | 4045 ft | 100 kts | 226° |
| 2026-04-23 21:43 | 34.46693 | -82.72283 | 4037 ft | 98 kts | 227° |
| 2026-04-23 21:44 | 34.46225 | -82.72890 | 4041 ft | 100 kts | 227° |
| 2026-04-23 21:44 | 34.45750 | -82.73508 | 4043 ft | 101 kts | 228° |
| 2026-04-23 21:44 | 34.45269 | -82.74133 | 4043 ft | 101 kts | 228° |
| 2026-04-23 21:44 | 34.44791 | -82.74753 | 4025 ft | 101 kts | 228° |
| 2026-04-23 21:45 | 34.44311 | -82.75375 | 4024 ft | 101 kts | 229° |
| 2026-04-23 21:45 | 34.43827 | -82.76001 | 4029 ft | 103 kts | 228° |
| 2026-04-23 21:45 | 34.43343 | -82.76631 | 4032 ft | 102 kts | 227° |
| 2026-04-23 21:45 | 34.42857 | -82.77269 | 4036 ft | 104 kts | 228° |
| 2026-04-23 21:46 | 34.42352 | -82.77913 | 4041 ft | 107 kts | 228° |
| 2026-04-23 21:46 | 34.41845 | -82.78567 | 4042 ft | 110 kts | 224° |
| 2026-04-23 21:46 | 34.41290 | -82.79203 | 4037 ft | 108 kts | 223° |
| 2026-04-23 21:46 | 34.40749 | -82.79827 | 4036 ft | 107 kts | 223° |
| 2026-04-23 21:47 | 34.40222 | -82.80437 | 4026 ft | 103 kts | 224° |
| 2026-04-23 21:47 | 34.39711 | -82.81026 | 4027 ft | 101 kts | 223° |
| 2026-04-23 21:47 | 34.39207 | -82.81606 | 4032 ft | 99 kts | 224° |
| 2026-04-23 21:47 | 34.38705 | -82.82188 | 4033 ft | 100 kts | 224° |
| 2026-04-23 21:48 | 34.38208 | -82.82760 | 4032 ft | 98 kts | 223° |
| 2026-04-23 21:48 | 34.37718 | -82.83325 | 4029 ft | 97 kts | 224° |
| 2026-04-23 21:48 | 34.37235 | -82.83880 | 4029 ft | 97 kts | 224° |
| 2026-04-23 21:48 | 34.36740 | -82.84451 | 4030 ft | 99 kts | 224° |
| 2026-04-23 21:49 | 34.36240 | -82.85026 | 4027 ft | 100 kts | 224° |
| 2026-04-23 21:49 | 34.35738 | -82.85606 | 4028 ft | 100 kts | 224° |
| 2026-04-23 21:49 | 34.35235 | -82.86187 | 4032 ft | 101 kts | 224° |
| 2026-04-23 21:49 | 34.34730 | -82.86767 | 4038 ft | 101 kts | 223° |
| 2026-04-23 21:50 | 34.34105 | -82.87202 | 4039 ft | 106 kts | 208° |
| 2026-04-23 21:50 | 34.33448 | -82.87606 | 4037 ft | 105 kts | 207° |
| 2026-04-23 21:50 | 34.32804 | -82.88001 | 4034 ft | 102 kts | 207° |
| 2026-04-23 21:50 | 34.32163 | -82.88402 | 4033 ft | 104 kts | 208° |
| 2026-04-23 21:51 | 34.31539 | -82.88785 | 4035 ft | 101 kts | 208° |
| 2026-04-23 21:51 | 34.30905 | -82.89179 | 3990 ft | 102 kts | 208° |
| 2026-04-23 21:51 | 34.30278 | -82.89566 | 3990 ft | 101 kts | 209° |
| 2026-04-23 21:51 | 34.29650 | -82.89959 | 3989 ft | 101 kts | 209° |
| 2026-04-23 21:52 | 34.29027 | -82.90345 | 3990 ft | 100 kts | 208° |
| 2026-04-23 21:52 | 34.28393 | -82.90737 | 3988 ft | 103 kts | 208° |
| 2026-04-23 21:52 | 34.27759 | -82.91134 | 3984 ft | 102 kts | 209° |
| 2026-04-23 21:52 | 34.27128 | -82.91523 | 3986 ft | 103 kts | 209° |
| 2026-04-23 21:53 | 34.26491 | -82.91918 | 3979 ft | 102 kts | 208° |
| 2026-04-23 21:53 | 34.25861 | -82.92308 | 3984 ft | 102 kts | 208° |
| 2026-04-23 21:53 | 34.25238 | -82.92664 | 3987 ft | 100 kts | 206° |
| 2026-04-23 21:53 | 34.24606 | -82.93021 | 3980 ft | 100 kts | 206° |
| 2026-04-23 21:54 | 34.23974 | -82.93379 | 3982 ft | 101 kts | 206° |
| 2026-04-23 21:54 | 34.23324 | -82.93743 | 3994 ft | 106 kts | 206° |
| 2026-04-23 21:54 | 34.22653 | -82.94122 | 3995 ft | 107 kts | 206° |
| 2026-04-23 21:54 | 34.21984 | -82.94500 | 3998 ft | 105 kts | 206° |
| 2026-04-23 21:55 | 34.21315 | -82.94872 | 3992 ft | 107 kts | 205° |
| 2026-04-23 21:55 | 34.20641 | -82.95258 | 3986 ft | 106 kts | 206° |
| 2026-04-23 21:55 | 34.19984 | -82.95627 | 3989 ft | 105 kts | 207° |
| 2026-04-23 21:55 | 34.19324 | -82.95997 | 3986 ft | 105 kts | 207° |
| 2026-04-23 21:56 | 34.18667 | -82.96366 | 3983 ft | 104 kts | 206° |
| 2026-04-23 21:56 | 34.18014 | -82.96736 | 3990 ft | 105 kts | 207° |
| 2026-04-23 21:56 | 34.17345 | -82.97110 | 3992 ft | 108 kts | 207° |
| 2026-04-23 21:56 | 34.16663 | -82.97495 | 3986 ft | 107 kts | 207° |
| 2026-04-23 21:57 | 34.15998 | -82.97868 | 3984 ft | 103 kts | 206° |
| 2026-04-23 21:57 | 34.15349 | -82.98232 | 3985 ft | 103 kts | 206° |
| 2026-04-23 21:57 | 34.14700 | -82.98595 | 3991 ft | 103 kts | 206° |
| 2026-04-23 21:57 | 34.14036 | -82.98969 | 3989 ft | 106 kts | 205° |
| 2026-04-23 21:58 | 34.13370 | -82.99345 | 3986 ft | 105 kts | 205° |
| 2026-04-23 21:58 | 34.12730 | -82.99704 | 3992 ft | 102 kts | 206° |
| 2026-04-23 21:58 | 34.12086 | -83.00065 | 3993 ft | 102 kts | 207° |
| 2026-04-23 21:58 | 34.11440 | -83.00428 | 3990 ft | 102 kts | 207° |
| 2026-04-23 21:59 | 34.10796 | -83.00789 | 3989 ft | 102 kts | 206° |
| 2026-04-23 21:59 | 34.10152 | -83.01152 | 3994 ft | 102 kts | 206° |
| 2026-04-23 21:59 | 34.09496 | -83.01523 | 4005 ft | 106 kts | 207° |
| 2026-04-23 22:00 | 34.08153 | -83.02276 | 3998 ft | 106 kts | 206° |
| 2026-04-23 22:00 | 34.07478 | -83.02654 | 4001 ft | 109 kts | 206° |
| 2026-04-23 22:00 | 34.06783 | -83.03044 | 3998 ft | 110 kts | 206° |
| 2026-04-23 22:00 | 34.06103 | -83.03424 | 3994 ft | 106 kts | 206° |
| 2026-04-23 22:01 | 34.05437 | -83.03797 | 3990 ft | 105 kts | 206° |
| 2026-04-23 22:01 | 34.04792 | -83.04157 | 3989 ft | 102 kts | 206° |
| 2026-04-23 22:01 | 34.04148 | -83.04517 | 3991 ft | 102 kts | 205° |
| 2026-04-23 22:01 | 34.03500 | -83.04883 | 3983 ft | 103 kts | 206° |
| 2026-04-23 22:02 | 34.02850 | -83.05247 | 3974 ft | 103 kts | 207° |
| 2026-04-23 22:02 | 34.02189 | -83.05619 | 3867 ft | 106 kts | 206° |
| 2026-04-23 22:02 | 34.01523 | -83.05992 | 3732 ft | 106 kts | 206° |
| 2026-04-23 22:02 | 34.00857 | -83.06366 | 3595 ft | 106 kts | 206° |
| 2026-04-23 22:03 | 34.00192 | -83.06738 | 3461 ft | 105 kts | 207° |
| 2026-04-23 22:03 | 33.99529 | -83.07110 | 3322 ft | 105 kts | 206° |
| 2026-04-23 22:03 | 33.98872 | -83.07477 | 3178 ft | 104 kts | 206° |
| 2026-04-23 22:03 | 33.98214 | -83.07846 | 3043 ft | 103 kts | 206° |
| 2026-04-23 22:04 | 33.97566 | -83.08206 | 2910 ft | 105 kts | 206° |
| 2026-04-23 22:04 | 33.96902 | -83.08581 | 2765 ft | 104 kts | 205° |
| 2026-04-23 22:04 | 33.96243 | -83.08948 | 2623 ft | 104 kts | 206° |
| 2026-04-23 22:04 | 33.95690 | -83.09482 | 2496 ft | 104 kts | 235° |
| 2026-04-23 22:05 | 33.95459 | -83.10244 | 2490 ft | 93 kts | 262° |
| 2026-04-23 22:05 | 33.95441 | -83.11022 | 2493 ft | 94 kts | 264° |
| 2026-04-23 22:05 | 33.95418 | -83.11829 | 2499 ft | 97 kts | 264° |
| 2026-04-23 22:05 | 33.95402 | -83.12634 | 2495 ft | 95 kts | 264° |
| 2026-04-23 22:06 | 33.95382 | -83.13426 | 2504 ft | 96 kts | 265° |
| 2026-04-23 22:06 | 33.95365 | -83.14250 | 2507 ft | 104 kts | 266° |
| 2026-04-23 22:06 | 33.95344 | -83.15147 | 2506 ft | 108 kts | 267° |
| 2026-04-23 22:06 | 33.95323 | -83.16039 | 2511 ft | 108 kts | 266° |
| 2026-04-23 22:07 | 33.95296 | -83.16955 | 2503 ft | 109 kts | 265° |
| 2026-04-23 22:07 | 33.95272 | -83.17855 | 2506 ft | 108 kts | 264° |
| 2026-04-23 22:07 | 33.95249 | -83.18775 | 2504 ft | 111 kts | 266° |
| 2026-04-23 22:07 | 33.95229 | -83.19702 | 2505 ft | 109 kts | 265° |
| 2026-04-23 22:08 | 33.95208 | -83.20596 | 2509 ft | 108 kts | 267° |
| 2026-04-23 22:08 | 33.95191 | -83.21503 | 2459 ft | 109 kts | 266° |
| 2026-04-23 22:08 | 33.95176 | -83.22416 | 2329 ft | 109 kts | 266° |
| 2026-04-23 22:08 | 33.95152 | -83.23315 | 2188 ft | 106 kts | 266° |
| 2026-04-23 22:09 | 33.95131 | -83.24166 | 2045 ft | 96 kts | 263° |
| 2026-04-23 22:09 | 33.95115 | -83.24920 | 1929 ft | 87 kts | 262° |
| 2026-04-23 22:09 | 33.95094 | -83.25667 | 1824 ft | 91 kts | 265° |
| 2026-04-23 22:09 | 33.95077 | -83.26431 | 1711 ft | 92 kts | 266° |
| 2026-04-23 22:10 | 33.95059 | -83.27210 | 1588 ft | 94 kts | 264° |
| 2026-04-23 22:10 | 33.95040 | -83.27992 | 1455 ft | 93 kts | 267° |
| 2026-04-23 22:10 | 33.95022 | -83.28756 | 1333 ft | 93 kts | 267° |
| 2026-04-23 22:10 | 33.95002 | -83.29532 | 1213 ft | 92 kts | 268° |
| 2026-04-23 22:11 | 33.94983 | -83.30305 | 1091 ft | 92 kts | 269° |
| 2026-04-23 22:11 | 33.94964 | -83.31073 | 947 ft | 90 kts | 269° |
| 2026-04-23 22:11 | 33.94945 | -83.31766 | 826 ft | 76 kts | 269° |
| 2026-04-23 22:11 | 33.94930 | -83.32306 | 799 ft | 53 kts | 268° |
| 2026-04-23 22:12 | 33.94922 | -83.32647 | 797 ft | 32 kts | 268° |
| 2026-04-23 22:12 | 33.94929 | -83.32789 | 794 ft | 7 kts | 349° |
| 2026-04-23 22:12 | 33.94965 | -83.32766 | 794 ft | 5 kts | 38° |
| 2026-04-23 22:12 | 33.94989 | -83.32744 | 794 ft | 3 kts | 37° |
| 2026-04-23 22:13 | 33.94997 | -83.32737 | 794 ft | 0 kts | 37° |
| 2026-04-23 22:13 | 33.95002 | -83.32733 | 794 ft | 2 kts | 36° |